Terminal Aerodrome Forecast
Issued by NWS

Home | Current Version | Previous Version | Text Only | Print | Product List | Glossary On
Versions: 1 2 3 4 5 6 7 8 9 10 11 12 13 14
000
FTUS43 KMPX 281100
TAFRNH
TAF
KRNH 281120Z 2812/2912 12005KT P6SM SCT250
     FM281600 13007KT P6SM SCT060 OVC150
     FM282100 13006KT 6SM -SHRA BKN025 OVC035
     FM290300 12005KT 5SM -SHRA BR SCT007 OVC010
     FM290600 12008KT 5SM -DZ BR SCT003 OVC005=

USA.gov is the U.S. government's official web portal to all federal, state and local government web resources and services.